createdAt,value
2022-12-03T00:00:38.676Z,1.50
2022-12-03T00:03:05.532Z,1.50
2022-12-03T00:05:32.625Z,1.52
2022-12-03T00:07:59.585Z,1.48
2022-12-03T00:10:26.426Z,1.52
2022-12-03T00:12:53.171Z,1.53
2022-12-03T00:15:20.023Z,1.54
2022-12-03T00:17:46.893Z,1.53
2022-12-03T00:20:22.843Z,1.52
2022-12-03T00:22:50.369Z,1.55
2022-12-03T00:25:17.570Z,1.54
2022-12-03T00:27:44.443Z,1.51
2022-12-03T00:30:13.995Z,1.53
2022-12-03T00:32:41.891Z,1.54
2022-12-03T00:35:09.117Z,1.52
2022-12-03T00:37:36.125Z,1.54
2022-12-03T00:40:06.768Z,1.50
2022-12-03T00:42:33.586Z,1.53
2022-12-03T00:45:00.442Z,1.54
2022-12-03T00:47:27.227Z,1.54
2022-12-03T00:49:54.049Z,1.51
2022-12-03T00:52:20.996Z,1.48
2022-12-03T00:54:49.183Z,1.46
2022-12-03T00:57:16.193Z,1.46
2022-12-03T00:59:42.952Z,1.45
2022-12-03T01:02:09.740Z,1.43
2022-12-03T01:04:36.679Z,1.42
2022-12-03T01:07:03.701Z,1.44
2022-12-03T01:09:31.551Z,1.43
2022-12-03T01:11:58.346Z,1.44
2022-12-03T01:14:25.136Z,1.45
2022-12-03T01:16:51.994Z,1.45
2022-12-03T01:19:19.582Z,1.45
2022-12-03T01:21:51.465Z,1.44
2022-12-03T01:24:19.324Z,1.47
2022-12-03T01:26:46.416Z,1.50
2022-12-03T01:29:13.573Z,1.53
2022-12-03T01:31:59.256Z,1.57
2022-12-03T01:34:26.128Z,1.57
2022-12-03T01:36:52.947Z,1.57
2022-12-03T01:39:20.183Z,1.57
2022-12-03T01:41:49.353Z,1.57
2022-12-03T01:44:21.565Z,1.56
2022-12-03T01:46:50.930Z,1.56
2022-12-03T01:49:22.303Z,1.59
2022-12-03T01:51:51.834Z,1.57
2022-12-03T01:54:22.287Z,1.59
2022-12-03T01:56:49.520Z,1.62
2022-12-03T01:59:20.130Z,1.63
2022-12-03T02:01:46.966Z,1.63
2022-12-03T02:04:16.131Z,1.64
2022-12-03T02:06:44.637Z,1.64
2022-12-03T02:09:13.036Z,1.63
2022-12-03T02:11:47.376Z,1.63
2022-12-03T02:14:20.118Z,1.60
2022-12-03T02:16:47.061Z,1.61
2022-12-03T02:19:24.460Z,1.63
2022-12-03T02:21:58.993Z,1.66
2022-12-03T02:24:52.823Z,1.67
2022-12-03T02:27:20.004Z,1.64
2022-12-03T02:29:47.189Z,1.62
2022-12-03T02:32:14.011Z,1.63
2022-12-03T02:34:42.338Z,1.64
2022-12-03T02:37:13.611Z,1.65
2022-12-03T02:39:47.346Z,1.65
2022-12-03T02:42:32.672Z,1.66
2022-12-03T02:45:05.291Z,1.67
2022-12-03T02:47:35.430Z,1.66
2022-12-03T02:50:03.135Z,1.64
2022-12-03T02:52:30.323Z,1.61
2022-12-03T02:54:57.375Z,1.56
2022-12-03T02:57:24.212Z,1.52
2022-12-03T02:59:51.283Z,1.54
2022-12-03T03:02:18.619Z,1.54
2022-12-03T03:04:45.564Z,1.51
2022-12-03T03:07:12.873Z,1.55
2022-12-03T03:09:39.883Z,1.56
2022-12-03T03:12:06.779Z,1.55
2022-12-03T03:14:33.838Z,1.55
2022-12-03T03:17:00.804Z,1.53
2022-12-03T03:19:28.794Z,1.53
2022-12-03T03:21:55.762Z,1.52
2022-12-03T03:24:23.346Z,1.51
2022-12-03T03:26:50.528Z,1.50
2022-12-03T03:29:17.545Z,1.52
2022-12-03T03:31:46.219Z,1.49
2022-12-03T03:34:14.104Z,1.46
2022-12-03T03:36:41.376Z,1.48
2022-12-03T03:39:09.629Z,1.48
2022-12-03T03:41:36.908Z,1.48
2022-12-03T03:44:06.530Z,1.51
2022-12-03T03:46:35.180Z,1.51
2022-12-03T03:49:03.965Z,1.50
2022-12-03T03:51:31.684Z,1.51
2022-12-03T03:53:58.744Z,1.54
2022-12-03T03:56:25.774Z,1.51
2022-12-03T03:58:52.812Z,1.53
2022-12-03T04:01:20.695Z,1.52
2022-12-03T04:03:47.672Z,1.51
2022-12-03T04:06:14.528Z,1.54
2022-12-03T04:08:41.381Z,1.54
2022-12-03T04:11:26.590Z,1.54
2022-12-03T04:13:53.390Z,1.52
2022-12-03T04:16:20.249Z,1.55
2022-12-03T04:18:47.276Z,1.58
2022-12-03T04:21:55.488Z,1.55
2022-12-03T04:24:23.944Z,1.58
2022-12-03T04:27:09.269Z,1.60
2022-12-03T04:29:36.801Z,1.60
2022-12-03T04:32:22.331Z,1.60
2022-12-03T04:35:07.997Z,1.59
2022-12-03T04:37:34.835Z,1.54
2022-12-03T04:40:01.678Z,1.57
2022-12-03T04:42:28.454Z,1.57
2022-12-03T04:44:58.477Z,1.55
2022-12-03T04:47:25.276Z,1.59
2022-12-03T04:49:52.221Z,1.58
2022-12-03T04:52:21.010Z,1.59
2022-12-03T04:54:47.994Z,1.58
2022-12-03T04:57:14.828Z,1.57
2022-12-03T04:59:41.645Z,1.55
2022-12-03T05:02:10.987Z,1.57
2022-12-03T05:04:37.945Z,1.57
2022-12-03T05:07:05.658Z,1.59
2022-12-03T05:09:35.030Z,1.58
2022-12-03T05:12:02.413Z,1.54
2022-12-03T05:14:31.016Z,1.51
2022-12-03T05:16:57.971Z,1.54
2022-12-03T05:19:48.718Z,1.47
2022-12-03T05:22:15.830Z,1.43
2022-12-03T05:24:45.663Z,1.45
2022-12-03T05:27:16.613Z,1.48
2022-12-03T05:29:45.999Z,1.49
2022-12-03T05:32:16.853Z,1.48
2022-12-03T05:34:44.155Z,1.48
2022-12-03T05:37:13.655Z,1.51
2022-12-03T05:39:43.320Z,1.51
2022-12-03T05:42:30.689Z,1.45
2022-12-03T05:44:58.717Z,1.46
2022-12-03T05:47:25.535Z,1.47
2022-12-03T05:49:52.807Z,1.45
2022-12-03T05:52:21.848Z,1.44
2022-12-03T05:54:50.484Z,1.39
2022-12-03T05:57:17.792Z,1.37
2022-12-03T05:59:45.399Z,1.42
2022-12-03T06:02:13.753Z,1.43
2022-12-03T06:04:40.688Z,1.47
2022-12-03T06:07:13.776Z,1.52
2022-12-03T06:09:47.331Z,1.53
2022-12-03T06:12:14.912Z,1.59
2022-12-03T06:14:46.559Z,1.63
2022-12-03T06:17:17.607Z,1.65
2022-12-03T06:19:45.687Z,1.66
2022-12-03T06:22:13.604Z,1.69
2022-12-03T06:24:43.045Z,1.75
2022-12-03T06:27:10.955Z,1.76
2022-12-03T06:29:38.744Z,1.83
2022-12-03T06:32:06.356Z,1.87
2022-12-03T06:34:33.479Z,1.88
2022-12-03T06:37:04.634Z,1.89
2022-12-03T06:39:32.344Z,1.90
2022-12-03T06:42:01.700Z,1.90
2022-12-03T06:44:28.850Z,1.89
2022-12-03T06:46:55.964Z,1.85
2022-12-03T06:49:28.160Z,1.84
2022-12-03T06:51:56.135Z,1.87
2022-12-03T06:54:23.590Z,1.83
2022-12-03T06:56:50.485Z,1.85
2022-12-03T06:59:17.519Z,1.81
2022-12-03T07:01:46.329Z,1.83
2022-12-03T07:04:16.399Z,1.80
2022-12-03T07:06:43.947Z,1.76
2022-12-03T07:09:12.330Z,1.76
2022-12-03T07:11:43.840Z,1.70
2022-12-03T07:14:12.056Z,1.75
2022-12-03T07:16:43.615Z,1.76
2022-12-03T07:19:12.128Z,1.73
2022-12-03T07:21:39.817Z,1.72
2022-12-03T07:24:07.520Z,1.70
2022-12-03T07:26:34.560Z,1.68
2022-12-03T07:29:02.059Z,1.68
2022-12-03T07:31:29.086Z,1.68
2022-12-03T07:33:56.112Z,1.64
2022-12-03T07:36:23.161Z,1.66
2022-12-03T07:38:51.662Z,1.69
2022-12-03T07:41:18.527Z,1.69
2022-12-03T07:43:46.965Z,1.69
2022-12-03T07:46:15.331Z,1.77
2022-12-03T07:48:49.564Z,1.84
2022-12-03T07:51:18.074Z,1.89
2022-12-03T07:53:46.537Z,1.91
2022-12-03T07:56:13.572Z,1.93
2022-12-03T07:58:43.375Z,1.96
2022-12-03T08:01:12.707Z,1.99
2022-12-03T08:03:40.855Z,1.97
2022-12-03T08:06:07.816Z,2.03
2022-12-03T08:08:34.741Z,2.02
2022-12-03T08:11:02.369Z,2.05
2022-12-03T08:13:29.298Z,2.07
2022-12-03T08:16:01.423Z,2.10
2022-12-03T08:18:28.818Z,2.08
2022-12-03T08:20:56.170Z,2.04
2022-12-03T08:23:26.077Z,2.08
2022-12-03T08:25:53.400Z,2.03
2022-12-03T08:28:23.815Z,2.06
2022-12-03T08:31:01.209Z,2.06
2022-12-03T08:33:37.073Z,2.12
2022-12-03T08:36:15.034Z,2.16
2022-12-03T08:38:48.218Z,2.17
2022-12-03T08:41:36.586Z,2.22
2022-12-03T08:44:32.627Z,2.25
2022-12-03T08:47:10.529Z,2.24
2022-12-03T08:49:37.807Z,2.25
2022-12-03T08:52:16.585Z,2.23
2022-12-03T08:54:45.462Z,2.21
2022-12-03T08:57:27.774Z,2.25
2022-12-03T09:00:01.320Z,2.24
2022-12-03T09:02:34.541Z,2.21
2022-12-03T09:05:21.059Z,2.26
2022-12-03T09:07:48.051Z,2.23
2022-12-03T09:10:17.453Z,2.24
2022-12-03T09:12:44.868Z,2.28
2022-12-03T09:15:11.866Z,2.31
2022-12-03T09:17:38.821Z,2.30
2022-12-03T09:20:06.848Z,2.30
2022-12-03T09:22:33.838Z,2.29
2022-12-03T09:25:00.812Z,2.26
2022-12-03T09:27:27.914Z,2.31
2022-12-03T09:29:54.841Z,2.25
2022-12-03T09:32:21.889Z,2.24
2022-12-03T09:34:49.172Z,2.21
2022-12-03T09:37:17.491Z,2.18
2022-12-03T09:39:45.554Z,2.20
2022-12-03T09:42:13.281Z,2.19
2022-12-03T09:44:40.566Z,2.19
2022-12-03T09:47:08.841Z,2.17
2022-12-03T09:49:37.918Z,2.15
2022-12-03T09:52:06.859Z,2.13
2022-12-03T09:54:34.616Z,2.12
2022-12-03T09:57:04.155Z,2.13
2022-12-03T09:59:33.467Z,2.09
2022-12-03T10:02:01.582Z,2.12
2022-12-03T10:04:29.479Z,2.11
2022-12-03T10:06:58.713Z,2.11
2022-12-03T10:09:30.595Z,2.12
2022-12-03T10:11:59.783Z,2.10
2022-12-03T10:14:29.371Z,2.15
2022-12-03T10:16:56.777Z,2.14
2022-12-03T10:19:27.776Z,2.14
2022-12-03T10:21:56.336Z,2.11
2022-12-03T10:24:35.154Z,2.17
2022-12-03T10:27:25.235Z,2.17
2022-12-03T10:29:58.580Z,2.16
2022-12-03T10:32:29.449Z,2.18
2022-12-03T10:35:41.269Z,2.20
2022-12-03T10:38:23.342Z,2.19
2022-12-03T10:40:51.121Z,2.16
2022-12-03T10:43:24.353Z,2.17
2022-12-03T10:46:04.811Z,2.22
2022-12-03T10:48:32.095Z,2.23
2022-12-03T10:51:05.207Z,2.24
2022-12-03T10:53:35.774Z,2.30
2022-12-03T10:56:05.897Z,2.34
2022-12-03T10:58:39.260Z,2.37
2022-12-03T11:01:15.314Z,2.37
2022-12-03T11:03:42.600Z,2.39
2022-12-03T11:06:16.776Z,2.45
2022-12-03T11:08:53.022Z,2.47
2022-12-03T11:11:29.251Z,2.46
2022-12-03T11:14:04.159Z,2.48
2022-12-03T11:16:40.099Z,2.51
2022-12-03T11:19:13.101Z,2.53
2022-12-03T11:22:05.185Z,2.53
2022-12-03T11:24:34.560Z,2.51
2022-12-03T11:27:07.588Z,2.54
2022-12-03T11:29:58.906Z,2.57
2022-12-03T11:32:45.975Z,2.60
2022-12-03T11:35:25.972Z,2.60
2022-12-03T11:37:54.224Z,2.61
2022-12-03T11:40:21.886Z,2.62
2022-12-03T11:42:49.342Z,2.64
2022-12-03T11:45:29.565Z,2.67
2022-12-03T11:48:13.954Z,2.67
2022-12-03T11:51:00.652Z,2.65
2022-12-03T11:53:31.893Z,2.67
2022-12-03T11:56:10.988Z,2.70
2022-12-03T11:58:43.479Z,2.75
2022-12-03T12:01:12.674Z,2.79
2022-12-03T12:03:49.512Z,2.75
2022-12-03T12:06:23.104Z,2.81
2022-12-03T12:08:51.161Z,2.82
2022-12-03T12:11:20.639Z,2.87
2022-12-03T12:14:03.989Z,2.88
2022-12-03T12:16:50.844Z,2.89
2022-12-03T12:19:36.202Z,2.90
2022-12-03T12:22:28.197Z,2.88
2022-12-03T12:25:04.073Z,2.85
2022-12-03T12:27:32.776Z,2.84
2022-12-03T12:30:16.055Z,2.80
2022-12-03T12:32:47.606Z,2.76
2022-12-03T12:35:18.671Z,2.74
2022-12-03T12:37:59.687Z,2.75
2022-12-03T12:40:30.651Z,2.71
2022-12-03T12:43:05.392Z,2.70
2022-12-03T12:45:37.083Z,2.65
2022-12-03T12:48:09.881Z,2.66
2022-12-03T12:50:38.861Z,2.67
2022-12-03T12:53:20.997Z,2.68
2022-12-03T12:56:01.612Z,2.70
2022-12-03T12:58:32.077Z,2.66
2022-12-03T13:01:04.147Z,2.68
2022-12-03T13:03:38.486Z,2.69
2022-12-03T13:06:05.942Z,2.66
2022-12-03T13:08:39.941Z,2.64
2022-12-03T13:11:19.271Z,2.65
2022-12-03T13:13:46.341Z,2.62
2022-12-03T13:16:28.256Z,2.65
2022-12-03T13:18:57.476Z,2.62
2022-12-03T13:21:31.260Z,2.55
2022-12-03T13:24:01.057Z,2.56
2022-12-03T13:26:41.494Z,2.57
2022-12-03T13:29:14.988Z,2.60
2022-12-03T13:31:52.510Z,2.67
2022-12-03T13:34:22.644Z,2.67
2022-12-03T13:36:57.950Z,2.64
2022-12-03T13:39:30.850Z,2.66
2022-12-03T13:42:34.252Z,2.66
2022-12-03T13:45:06.526Z,2.60
2022-12-03T13:47:34.239Z,2.60
2022-12-03T13:50:12.141Z,2.55
2022-12-03T13:52:39.393Z,2.59
2022-12-03T13:55:13.859Z,2.59
2022-12-03T13:57:40.702Z,2.55
2022-12-03T14:00:08.297Z,2.50
2022-12-03T14:02:40.396Z,2.47
2022-12-03T14:05:08.774Z,2.43
2022-12-03T14:07:35.704Z,2.44
2022-12-03T14:10:03.087Z,2.43
2022-12-03T14:12:34.033Z,2.41
2022-12-03T14:15:06.112Z,2.38
2022-12-03T14:17:34.283Z,2.37
2022-12-03T14:20:02.953Z,2.34
2022-12-03T14:22:30.750Z,2.33
2022-12-03T14:24:59.474Z,2.30
2022-12-03T14:27:27.678Z,2.30
2022-12-03T14:29:55.132Z,2.29
2022-12-03T14:32:23.183Z,2.31
2022-12-03T14:34:50.055Z,2.32
2022-12-03T14:37:18.342Z,2.30
2022-12-03T14:39:45.188Z,2.26
2022-12-03T14:42:15.331Z,2.24
2022-12-03T14:44:47.543Z,2.19
2022-12-03T14:47:17.219Z,2.17
2022-12-03T14:49:44.187Z,2.14
2022-12-03T14:52:12.634Z,2.15
2022-12-03T14:54:42.858Z,2.16
2022-12-03T14:57:12.820Z,2.19
2022-12-03T14:59:45.226Z,2.19
2022-12-03T15:02:12.828Z,2.22
2022-12-03T15:04:41.469Z,2.18
2022-12-03T15:07:09.179Z,2.14
2022-12-03T15:09:37.427Z,2.10
2022-12-03T15:12:05.195Z,2.14
2022-12-03T15:14:32.414Z,2.12
2022-12-03T15:17:00.385Z,2.16
2022-12-03T15:19:27.374Z,2.15
2022-12-03T15:21:54.317Z,2.20
2022-12-03T15:24:21.402Z,2.17
2022-12-03T15:26:49.778Z,2.13
2022-12-03T15:29:16.593Z,2.13
2022-12-03T15:31:44.733Z,2.14
2022-12-03T15:34:11.728Z,2.13
2022-12-03T15:36:39.148Z,2.14
2022-12-03T15:39:05.992Z,2.12
2022-12-03T15:41:32.912Z,2.14
2022-12-03T15:44:02.216Z,2.16
2022-12-03T15:46:29.760Z,2.17
2022-12-03T15:48:57.701Z,2.16
2022-12-03T15:51:25.010Z,2.17
2022-12-03T15:53:51.998Z,2.17
2022-12-03T15:56:18.937Z,2.16
2022-12-03T15:58:46.391Z,2.17
2022-12-03T16:01:14.112Z,2.23
2022-12-03T16:03:41.874Z,2.20
2022-12-03T16:06:24.205Z,2.23
2022-12-03T16:08:51.156Z,2.19
2022-12-03T16:11:19.113Z,2.17
2022-12-03T16:13:45.974Z,2.16
2022-12-03T16:16:12.910Z,2.18
2022-12-03T16:18:41.118Z,2.18
2022-12-03T16:21:08.017Z,2.17
2022-12-03T16:23:34.871Z,2.22
2022-12-03T16:26:01.810Z,2.21
2022-12-03T16:28:28.705Z,2.18
2022-12-03T16:30:55.662Z,2.18
2022-12-03T16:33:27.256Z,2.19
2022-12-03T16:35:54.960Z,2.21
2022-12-03T16:38:22.198Z,2.19
2022-12-03T16:40:49.131Z,2.18
2022-12-03T16:43:16.449Z,2.14
2022-12-03T16:45:46.200Z,2.11
2022-12-03T16:48:13.265Z,2.12
2022-12-03T16:50:40.180Z,2.15
2022-12-03T16:53:07.458Z,2.16
2022-12-03T16:55:34.469Z,2.14
2022-12-03T16:58:01.775Z,2.19
2022-12-03T17:00:29.005Z,2.19
2022-12-03T17:02:55.999Z,2.18
2022-12-03T17:05:22.975Z,2.14
2022-12-03T17:07:49.907Z,2.09
2022-12-03T17:10:16.937Z,2.04
2022-12-03T17:13:08.216Z,2.01
2022-12-03T17:15:31.455Z,1.96
2022-12-03T17:17:58.613Z,1.96
2022-12-03T17:20:25.740Z,1.96
2022-12-03T17:22:52.573Z,1.93
2022-12-03T17:25:19.603Z,1.93
2022-12-03T17:27:46.411Z,1.92
2022-12-03T17:30:14.310Z,1.94
2022-12-03T17:32:41.561Z,1.95
2022-12-03T17:35:09.229Z,1.95
2022-12-03T17:37:36.497Z,1.98
2022-12-03T17:40:08.234Z,2.02
2022-12-03T17:42:35.112Z,2.04
2022-12-03T17:45:02.329Z,2.05
2022-12-03T17:47:29.500Z,2.06
2022-12-03T17:49:56.529Z,2.06
2022-12-03T17:52:23.589Z,2.04
2022-12-03T17:55:09.672Z,2.03
2022-12-03T17:57:37.224Z,2.03
2022-12-03T18:00:04.885Z,2.05
2022-12-03T18:02:39.242Z,2.06
2022-12-03T18:05:06.399Z,2.01
2022-12-03T18:07:33.386Z,1.98
2022-12-03T18:10:00.275Z,1.97
2022-12-03T18:12:27.215Z,1.98
2022-12-03T18:14:54.043Z,1.98
2022-12-03T18:17:20.866Z,2.01
2022-12-03T18:19:47.868Z,2.02
2022-12-03T18:22:15.007Z,2.04
2022-12-03T18:24:43.311Z,2.05
2022-12-03T18:27:11.801Z,2.07
2022-12-03T18:29:38.705Z,2.06
2022-12-03T18:32:27.133Z,2.04
2022-12-03T18:34:54.275Z,2.08
2022-12-03T18:37:22.571Z,2.08
2022-12-03T18:39:49.404Z,2.08
2022-12-03T18:42:21.240Z,2.08
2022-12-03T18:44:50.091Z,2.09
2022-12-03T18:47:22.377Z,2.13
2022-12-03T18:49:49.220Z,2.11
2022-12-03T18:52:18.289Z,2.09
2022-12-03T18:54:45.303Z,2.04
2022-12-03T18:57:12.331Z,2.04
2022-12-03T18:59:39.610Z,2.08
2022-12-03T19:02:08.084Z,2.06
2022-12-03T19:04:34.960Z,2.04
2022-12-03T19:07:03.470Z,2.02
2022-12-03T19:09:30.650Z,2.04
2022-12-03T19:11:57.605Z,2.05
2022-12-03T19:14:24.390Z,2.05
2022-12-03T19:16:52.082Z,2.08
2022-12-03T19:19:22.379Z,2.07
2022-12-03T19:21:49.393Z,2.04
2022-12-03T19:24:28.515Z,2.03
2022-12-03T19:27:07.997Z,2.01
2022-12-03T19:29:44.971Z,2.02
2022-12-03T19:32:20.592Z,2.05
2022-12-03T19:35:02.224Z,2.07
2022-12-03T19:37:35.489Z,2.10
2022-12-03T19:40:07.550Z,2.12
2022-12-03T19:42:38.184Z,2.11
2022-12-03T19:45:11.729Z,2.09
2022-12-03T19:47:47.795Z,2.05
2022-12-03T19:50:22.628Z,2.02
2022-12-03T19:52:49.657Z,2.01
2022-12-03T19:55:19.631Z,2.01
2022-12-03T19:57:46.767Z,2.01
2022-12-03T20:00:14.306Z,2.01
2022-12-03T20:02:41.403Z,1.98
2022-12-03T20:05:08.826Z,1.99
2022-12-03T20:07:35.927Z,2.00
2022-12-03T20:10:03.810Z,2.05
2022-12-03T20:12:30.959Z,2.07
2022-12-03T20:14:57.748Z,2.09
2022-12-03T20:17:24.573Z,2.13
2022-12-03T20:19:51.681Z,2.14
2022-12-03T20:22:18.625Z,2.15
2022-12-03T20:24:45.414Z,2.12
2022-12-03T20:27:12.336Z,2.11
2022-12-03T20:29:39.618Z,2.06
2022-12-03T20:32:07.162Z,2.06
2022-12-03T20:34:37.140Z,2.07
2022-12-03T20:37:04.064Z,2.09
2022-12-03T20:39:31.956Z,2.10
2022-12-03T20:41:58.733Z,2.09
2022-12-03T20:44:25.698Z,2.09
2022-12-03T20:46:52.521Z,2.11
2022-12-03T20:49:19.347Z,2.13
2022-12-03T20:51:46.158Z,2.17
2022-12-03T20:54:12.915Z,2.22
2022-12-03T20:56:39.744Z,2.22
2022-12-03T20:59:10.416Z,2.21
2022-12-03T21:01:38.661Z,2.22
2022-12-03T21:04:07.394Z,2.27
2022-12-03T21:06:36.293Z,2.24
2022-12-03T21:09:06.600Z,2.22
2022-12-03T21:11:35.907Z,2.18
2022-12-03T21:14:04.301Z,2.19
2022-12-03T21:17:06.058Z,2.22
2022-12-03T21:19:22.416Z,2.21
2022-12-03T21:21:49.243Z,2.20
2022-12-03T21:24:16.086Z,2.21
2022-12-03T21:26:42.907Z,2.17
2022-12-03T21:29:09.784Z,2.20
2022-12-03T21:31:38.514Z,2.18
2022-12-03T21:34:05.601Z,2.17
2022-12-03T21:36:32.612Z,2.19
2022-12-03T21:38:59.608Z,2.21
2022-12-03T21:41:26.517Z,2.21
2022-12-03T21:43:53.550Z,2.17
2022-12-03T21:47:12.464Z,2.17
2022-12-03T21:49:07.325Z,2.13
2022-12-03T21:51:34.228Z,2.15
2022-12-03T21:54:01.238Z,2.18
2022-12-03T21:56:30.461Z,2.16
2022-12-03T21:58:57.402Z,2.14
2022-12-03T22:01:24.766Z,2.12
2022-12-03T22:03:52.555Z,2.13
2022-12-03T22:06:19.776Z,2.11
2022-12-03T22:08:46.650Z,2.11
2022-12-03T22:11:17.270Z,2.13
2022-12-03T22:13:44.674Z,2.12
2022-12-03T22:16:17.076Z,2.15
2022-12-03T22:18:44.198Z,2.17
2022-12-03T22:21:15.415Z,2.22
2022-12-03T22:23:42.558Z,2.20
2022-12-03T22:26:13.122Z,2.19
2022-12-03T22:28:43.740Z,2.18
2022-12-03T22:31:11.599Z,2.19
2022-12-03T22:33:39.204Z,2.22
2022-12-03T22:36:16.403Z,2.24
2022-12-03T22:38:47.740Z,2.22
2022-12-03T22:41:15.019Z,2.24
2022-12-03T22:43:42.985Z,2.27
2022-12-03T22:46:12.972Z,2.29
2022-12-03T22:48:41.868Z,2.31
2022-12-03T22:51:17.668Z,2.33
2022-12-03T22:53:44.536Z,2.32
2022-12-03T22:56:11.430Z,2.34
2022-12-03T22:58:39.792Z,2.35
2022-12-03T23:01:07.080Z,2.34
2022-12-03T23:03:34.040Z,2.36
2022-12-03T23:06:00.891Z,2.33
2022-12-03T23:08:27.647Z,2.36
2022-12-03T23:10:54.560Z,2.37
2022-12-03T23:13:21.335Z,2.36
2022-12-03T23:15:52.361Z,2.38
2022-12-03T23:18:20.216Z,2.34
2022-12-03T23:20:50.390Z,2.38
2022-12-03T23:23:18.505Z,2.43
2022-12-03T23:25:56.621Z,2.41
2022-12-03T23:28:23.600Z,2.36
2022-12-03T23:30:50.582Z,2.35
2022-12-03T23:33:17.573Z,2.33
2022-12-03T23:35:44.421Z,2.32
2022-12-03T23:38:11.446Z,2.35
2022-12-03T23:40:39.608Z,2.36
2022-12-03T23:43:09.088Z,2.38
2022-12-03T23:45:35.949Z,2.35
2022-12-03T23:48:03.040Z,2.36
2022-12-03T23:50:30.127Z,2.34
2022-12-03T23:52:57.008Z,2.34
2022-12-03T23:55:24.015Z,2.37
2022-12-03T23:57:50.790Z,2.37
